Time;durP1;ratioP1;P1;durP2;ratioP2;P2;SDS_P1;SDS_P2;PMS_P1;PMS_P2;Temp;Humidity;BMP_temperature;BMP_pressure;BME280_temperature;BME280_humidity;BME280_pressure;Samples;Min_cycle;Max_cycle;Signal;HPM_P1;HPM_P2
2023/04/09 00:00:35;;;;;;;65.38;61.33;;;8.80;99.90;;;;;;5247461;28;20021;-72
2023/04/09 00:03:06;;;;;;;63.47;59.33;;;8.90;99.90;;;;;;5248001;28;20032;-65
2023/04/09 00:05:40;;;;;;;75.68;70.40;;;8.90;99.90;;;;;;5226928;28;20047;-68
2023/04/09 00:08:11;;;;;;;69.95;65.30;;;8.70;99.90;;;;;;5226658;28;20021;-66
2023/04/09 00:10:42;;;;;;;65.22;60.83;;;9.00;99.90;;;;;;5226656;28;20021;-66
2023/04/09 00:13:12;;;;;;;78.43;72.47;;;8.90;99.90;;;;;;5226614;28;20549;-65
2023/04/09 00:15:45;;;;;;;62.00;58.15;;;8.70;99.90;;;;;;5226536;28;20057;-65
2023/04/09 00:18:16;;;;;;;61.05;57.05;;;8.60;99.90;;;;;;5226574;28;20040;-72
2023/04/09 00:20:47;;;;;;;61.90;57.88;;;8.90;99.90;;;;;;5226486;28;20593;-72
2023/04/09 00:23:19;;;;;;;65.95;61.38;;;8.70;99.90;;;;;;5226585;28;20025;-72
2023/04/09 00:25:50;;;;;;;64.72;60.60;;;8.70;99.90;;;;;;5226462;28;20048;-72
2023/04/09 00:28:20;;;;;;;61.85;57.65;;;8.70;99.90;;;;;;5226572;28;20021;-72
2023/04/09 00:30:51;;;;;;;63.33;59.28;;;8.20;99.90;;;;;;5226777;28;20021;-71
2023/04/09 00:33:22;;;;;;;68.18;63.58;;;8.40;99.90;;;;;;5226406;28;20079;-67
2023/04/09 00:35:53;;;;;;;73.90;68.95;;;8.20;99.90;;;;;;5227405;28;20028;-71
2023/04/09 00:38:24;;;;;;;70.25;65.50;;;8.60;99.90;;;;;;5230094;28;20029;-72
2023/04/09 00:40:55;;;;;;;74.75;69.85;;;8.40;99.90;;;;;;5226532;28;20029;-72
2023/04/09 00:43:26;;;;;;;74.45;69.47;;;8.50;99.90;;;;;;5226454;28;20079;-72
2023/04/09 00:45:58;;;;;;;67.25;62.67;;;8.50;99.90;;;;;;5226198;28;20073;-65
2023/04/09 00:48:29;;;;;;;63.63;59.58;;;8.70;99.90;;;;;;5227327;28;20049;-72
2023/04/09 00:51:00;;;;;;;65.38;60.78;;;8.80;99.90;;;;;;5230649;28;20041;-71
2023/04/09 00:53:31;;;;;;;67.40;63.03;;;8.70;99.90;;;;;;5230522;28;20029;-71
2023/04/09 00:56:03;;;;;;;64.82;60.72;;;8.50;99.90;;;;;;5230457;28;20017;-72
2023/04/09 00:58:34;;;;;;;73.72;68.40;;;8.20;99.90;;;;;;5234908;28;20033;-72
2023/04/09 01:01:05;;;;;;;69.60;64.43;;;8.40;99.90;;;;;;5250989;28;20031;-72
2023/04/09 01:03:36;;;;;;;73.72;68.68;;;8.50;99.90;;;;;;5250735;28;20032;-72
2023/04/09 01:06:19;;;;;;;60.50;56.63;;;8.70;99.90;;;;;;5250808;28;20098;-64
2023/04/09 01:09:12;;;;;;;62.10;58.47;;;8.70;99.90;;;;;;5250862;28;20024;-71
2023/04/09 01:12:06;;;;;;;64.63;60.60;;;8.60;99.90;;;;;;5245175;28;20098;-66
2023/04/09 01:14:46;;;;;;;81.38;74.55;;;8.70;99.90;;;;;;5250896;28;20060;-72
2023/04/09 01:17:25;;;;;;;72.70;67.65;;;8.60;99.90;;;;;;5250745;28;20035;-72
2023/04/09 01:20:04;;;;;;;86.35;79.63;;;8.50;99.90;;;;;;5250512;28;20108;-68
2023/04/09 01:23:00;;;;;;;66.00;61.55;;;8.50;99.90;;;;;;5250462;28;20029;-67
2023/04/09 01:25:44;;;;;;;62.42;58.38;;;8.80;99.90;;;;;;5250259;28;20032;-66
2023/04/09 01:28:25;;;;;;;63.22;59.17;;;8.70;99.90;;;;;;5250518;28;20025;-70
2023/04/09 01:31:28;;;;;;;61.03;57.33;;;8.90;99.90;;;;;;5249144;28;20082;-66
2023/04/09 01:34:03;;;;;;;60.55;56.83;;;8.80;99.90;;;;;;5237731;28;20060;-71
2023/04/09 01:36:35;;;;;;;56.13;52.67;;;8.90;99.90;;;;;;5229596;28;20083;-71
2023/04/09 01:39:07;;;;;;;57.25;53.45;;;9.00;99.90;;;;;;5229636;28;20028;-65
2023/04/09 01:41:39;;;;;;;57.35;53.65;;;8.90;99.90;;;;;;5229637;28;20488;-68
2023/04/09 01:44:12;;;;;;;61.72;57.83;;;8.70;99.90;;;;;;5229604;28;20465;-72
2023/04/09 01:46:45;;;;;;;65.97;61.53;;;8.80;99.90;;;;;;5229361;28;20037;-72
2023/04/09 01:49:17;;;;;;;62.58;58.63;;;8.90;99.90;;;;;;5229537;28;20564;-72
2023/04/09 01:51:49;;;;;;;66.07;61.97;;;8.80;99.90;;;;;;5229382;28;20025;-72
2023/04/09 01:54:20;;;;;;;58.53;54.92;;;8.80;99.90;;;;;;5229302;28;20048;-72
2023/04/09 01:56:50;;;;;;;61.28;57.20;;;9.00;99.90;;;;;;5229246;28;20025;-72
2023/04/09 01:59:21;;;;;;;60.70;56.58;;;8.80;99.90;;;;;;5228682;28;20033;-72
2023/04/09 02:01:53;;;;;;;59.90;55.58;;;8.70;99.90;;;;;;5228242;28;20462;-72
2023/04/09 02:04:39;;;;;;;57.92;54.15;;;8.90;99.90;;;;;;5228795;28;20036;-71
2023/04/09 02:07:22;;;;;;;57.83;54.10;;;8.80;99.90;;;;;;5229039;28;20076;-71
2023/04/09 02:09:54;;;;;;;61.00;56.78;;;9.00;99.90;;;;;;5229095;28;20104;-71
2023/04/09 02:12:25;;;;;;;59.85;55.63;;;9.00;99.90;;;;;;5228962;28;20656;-71
2023/04/09 02:14:57;;;;;;;63.28;58.97;;;9.00;99.90;;;;;;5228808;28;20044;-71
2023/04/09 02:17:28;;;;;;;60.00;55.72;;;8.90;99.90;;;;;;5228849;28;20029;-71
2023/04/09 02:19:59;;;;;;;61.33;57.15;;;8.80;99.90;;;;;;5228731;28;20017;-71
2023/04/09 02:22:29;;;;;;;59.97;56.03;;;8.90;99.90;;;;;;5228710;28;20053;-71
2023/04/09 02:25:00;;;;;;;57.40;53.40;;;9.00;99.90;;;;;;5228585;28;20338;-71
2023/04/09 02:27:31;;;;;;;60.10;55.60;;;9.00;99.90;;;;;;5228489;28;20044;-72
2023/04/09 02:30:02;;;;;;;57.72;53.92;;;8.80;99.90;;;;;;5228425;28;20373;-65
2023/04/09 02:32:33;;;;;;;58.22;54.63;;;8.90;99.90;;;;;;5231358;28;20033;-69
2023/04/09 02:35:05;;;;;;;55.95;52.35;;;9.00;99.90;;;;;;5249015;28;20056;-72
2023/04/09 02:37:35;;;;;;;56.17;52.65;;;8.90;99.90;;;;;;5249044;28;20039;-72
2023/04/09 02:40:07;;;;;;;57.05;53.47;;;9.00;99.90;;;;;;5249241;28;20021;-72
2023/04/09 02:42:37;;;;;;;56.97;53.35;;;8.90;99.90;;;;;;5248989;28;20119;-72
2023/04/09 02:45:09;;;;;;;56.50;52.95;;;9.10;99.90;;;;;;5248743;28;20146;-71
2023/04/09 02:47:40;;;;;;;55.03;51.38;;;9.00;99.90;;;;;;5248892;28;20020;-71
2023/04/09 02:50:10;;;;;;;56.38;52.78;;;9.10;99.90;;;;;;5248812;28;20379;-71
2023/04/09 02:52:44;;;;;;;58.80;55.13;;;9.00;99.90;;;;;;5248828;28;20341;-71
2023/04/09 02:55:16;;;;;;;53.95;50.35;;;9.10;99.90;;;;;;5249120;28;20488;-68
2023/04/09 02:57:47;;;;;;;55.90;52.42;;;9.10;99.90;;;;;;5248954;28;20024;-72
2023/04/09 03:00:18;;;;;;;55.22;51.75;;;9.00;99.90;;;;;;5248634;28;20024;-70
2023/04/09 03:02:49;;;;;;;58.88;55.28;;;9.00;99.90;;;;;;5243895;28;20098;-71
2023/04/09 03:05:20;;;;;;;55.00;51.47;;;9.10;99.90;;;;;;5227790;28;20354;-71
2023/04/09 03:07:51;;;;;;;52.80;49.47;;;9.00;99.90;;;;;;5227883;28;20505;-72
2023/04/09 03:10:21;;;;;;;54.60;51.13;;;9.10;99.90;;;;;;5227794;28;20369;-71
2023/04/09 03:12:52;;;;;;;57.63;53.88;;;9.10;99.90;;;;;;5227428;28;20017;-71
2023/04/09 03:15:23;;;;;;;56.75;53.10;;;9.20;99.90;;;;;;5227571;28;20029;-67
2023/04/09 03:17:54;;;;;;;53.78;49.70;;;9.20;99.90;;;;;;5247457;28;20487;-72
2023/04/09 03:20:25;;;;;;;55.85;52.00;;;9.10;99.90;;;;;;5248293;28;20025;-71
2023/04/09 03:22:56;;;;;;;52.58;49.00;;;9.10;99.90;;;;;;5248101;28;20122;-70
2023/04/09 03:25:26;;;;;;;55.25;51.85;;;9.10;99.90;;;;;;5247958;28;20044;-65
2023/04/09 03:27:57;;;;;;;53.13;49.53;;;9.00;99.90;;;;;;5247994;28;20028;-64
2023/04/09 03:30:29;;;;;;;52.60;49.30;;;9.10;99.90;;;;;;5244214;28;20104;-72
2023/04/09 03:33:00;;;;;;;56.03;52.35;;;9.10;99.90;;;;;;5227015;28;20032;-65
2023/04/09 03:35:30;;;;;;;55.42;51.72;;;9.00;99.90;;;;;;5227242;28;20025;-72
2023/04/09 03:38:01;;;;;;;54.38;50.45;;;8.90;99.90;;;;;;5227241;28;20094;-72
2023/04/09 03:40:32;;;;;;;57.22;53.60;;;9.10;99.90;;;;;;5227065;28;20021;-72
2023/04/09 03:43:03;;;;;;;53.75;50.03;;;9.20;99.90;;;;;;5227054;28;20091;-72
2023/04/09 03:45:34;;;;;;;59.20;55.42;;;9.00;99.90;;;;;;5226898;28;20039;-72
2023/04/09 03:48:05;;;;;;;56.97;53.15;;;9.10;99.90;;;;;;5227016;28;20032;-72
2023/04/09 03:50:40;;;;;;;57.88;54.28;;;9.20;99.90;;;;;;5226969;28;20036;-72
2023/04/09 03:53:10;;;;;;;59.80;56.00;;;9.10;99.90;;;;;;5226815;28;20036;-71
2023/04/09 03:55:41;;;;;;;55.53;52.03;;;9.10;99.90;;;;;;5226896;28;20024;-72
2023/04/09 03:58:12;;;;;;;58.65;54.85;;;9.00;99.90;;;;;;5235825;28;20027;-72
2023/04/09 04:00:43;;;;;;;55.10;51.63;;;9.30;99.90;;;;;;5247710;28;20556;-71
2023/04/09 04:03:15;;;;;;;56.70;53.05;;;9.10;99.90;;;;;;5247531;28;20028;-72
2023/04/09 04:05:45;;;;;;;56.33;52.50;;;9.20;99.90;;;;;;5247608;28;20028;-66
2023/04/09 04:08:16;;;;;;;53.95;50.45;;;9.30;99.90;;;;;;5247472;28;20028;-72
2023/04/09 04:10:47;;;;;;;51.00;47.53;;;9.10;99.90;;;;;;5247597;28;20090;-72
2023/04/09 04:13:18;;;;;;;57.65;53.85;;;9.10;99.90;;;;;;5232670;28;20033;-72
2023/04/09 04:15:49;;;;;;;55.72;52.05;;;9.00;99.90;;;;;;5247044;28;20380;-71
2023/04/09 04:18:20;;;;;;;54.63;51.03;;;9.10;99.90;;;;;;5247481;28;20373;-72
2023/04/09 04:20:50;;;;;;;60.90;57.00;;;9.30;99.90;;;;;;5247399;28;20023;-72
2023/04/09 04:23:21;;;;;;;58.97;55.17;;;9.30;99.90;;;;;;5246632;28;20515;-72
2023/04/09 04:25:52;;;;;;;54.45;50.85;;;9.20;99.90;;;;;;5247166;28;20041;-67
2023/04/09 04:28:23;;;;;;;52.97;49.63;;;9.30;99.90;;;;;;5247255;28;20032;-72
2023/04/09 04:30:54;;;;;;;53.10;49.65;;;9.30;99.90;;;;;;5247271;28;20039;-72
2023/04/09 04:33:25;;;;;;;53.97;50.63;;;9.20;99.90;;;;;;5246850;28;20373;-71
2023/04/09 04:36:10;;;;;;;57.13;53.42;;;9.30;99.90;;;;;;5247169;28;20593;-72
2023/04/09 04:38:41;;;;;;;54.28;50.63;;;9.10;99.90;;;;;;5247218;28;20056;-66
2023/04/09 04:41:12;;;;;;;58.63;54.67;;;9.30;99.90;;;;;;5247175;28;20507;-67
2023/04/09 04:43:43;;;;;;;58.72;54.47;;;9.40;99.90;;;;;;5247094;28;20094;-71
2023/04/09 04:46:14;;;;;;;54.97;51.05;;;9.30;99.90;;;;;;5246921;28;20072;-72
2023/04/09 04:48:45;;;;;;;57.15;53.08;;;9.40;99.90;;;;;;5247087;28;20528;-72
2023/04/09 04:51:15;;;;;;;54.05;50.25;;;9.50;99.90;;;;;;5246896;28;20043;-64
2023/04/09 04:53:46;;;;;;;61.88;57.45;;;9.50;99.90;;;;;;5246889;28;20036;-72
2023/04/09 04:56:17;;;;;;;57.50;53.28;;;9.50;99.90;;;;;;5247020;28;20029;-71
2023/04/09 04:58:48;;;;;;;57.75;53.50;;;9.40;99.90;;;;;;5246755;28;20048;-72
2023/04/09 05:01:19;;;;;;;56.08;51.67;;;9.50;99.90;;;;;;5246909;28;20060;-72
2023/04/09 05:03:49;;;;;;;50.65;47.03;;;9.60;99.90;;;;;;5246589;28;20024;-72
2023/04/09 05:06:20;;;;;;;52.05;48.35;;;9.60;99.90;;;;;;5246708;28;20093;-65
2023/04/09 05:08:51;;;;;;;51.15;47.70;;;9.70;99.90;;;;;;5246772;28;20024;-72
2023/04/09 05:11:25;;;;;;;46.72;43.63;;;9.70;99.90;;;;;;5246617;28;20027;-72
2023/04/09 05:13:56;;;;;;;52.88;49.30;;;9.70;99.90;;;;;;5246733;28;20023;-72
2023/04/09 05:16:27;;;;;;;48.55;45.38;;;9.70;99.90;;;;;;5246902;28;20025;-68
2023/04/09 05:18:58;;;;;;;49.53;46.13;;;9.70;99.90;;;;;;5246736;28;20093;-71
2023/04/09 05:21:30;;;;;;;46.75;43.75;;;9.80;99.90;;;;;;5246910;28;20032;-67
2023/04/09 05:24:01;;;;;;;49.83;46.63;;;9.90;99.90;;;;;;5245826;28;20488;-64
2023/04/09 05:26:32;;;;;;;48.22;44.83;;;9.90;99.90;;;;;;5235903;28;20068;-64
2023/04/09 05:29:03;;;;;;;45.50;42.78;;;9.80;99.90;;;;;;5246536;28;20111;-67
2023/04/09 05:31:34;;;;;;;46.72;43.67;;;9.80;99.90;;;;;;5246821;28;20377;-66
2023/04/09 05:34:05;;;;;;;52.97;49.38;;;9.80;99.90;;;;;;5246484;28;20106;-73
2023/04/09 05:36:36;;;;;;;46.53;43.22;;;9.80;99.90;;;;;;5250157;28;20040;-73
2023/04/09 05:39:07;;;;;;;49.17;45.95;;;9.90;99.90;;;;;;5250265;28;20025;-74
2023/04/09 05:41:38;;;;;;;45.50;42.33;;;9.90;99.90;;;;;;5249941;28;20035;-65
2023/04/09 05:44:09;;;;;;;46.05;43.03;;;9.80;99.90;;;;;;5249571;28;20029;-72
2023/04/09 05:46:40;;;;;;;49.17;45.72;;;9.80;99.90;;;;;;5248889;28;20125;-65
2023/04/09 05:49:11;;;;;;;47.63;44.22;;;9.90;99.90;;;;;;5244515;28;20075;-67
2023/04/09 05:51:42;;;;;;;49.22;46.00;;;9.90;99.90;;;;;;5242867;28;20041;-73
2023/04/09 05:54:12;;;;;;;42.95;40.35;;;9.90;99.90;;;;;;5249553;28;20012;-73
2023/04/09 05:56:43;;;;;;;44.17;41.33;;;10.10;99.90;;;;;;5249358;28;20037;-72
2023/04/09 05:59:14;;;;;;;47.50;44.28;;;10.20;99.90;;;;;;5249238;28;20012;-73
2023/04/09 06:01:45;;;;;;;42.40;39.53;;;10.10;99.90;;;;;;5249234;28;20028;-74
2023/04/09 06:04:16;;;;;;;47.22;43.92;;;10.20;99.90;;;;;;5249145;28;20020;-71
2023/04/09 06:06:47;;;;;;;44.95;41.95;;;10.30;99.90;;;;;;5249453;28;20107;-72
2023/04/09 06:09:17;;;;;;;44.95;41.88;;;10.40;99.90;;;;;;5248638;28;20024;-74
2023/04/09 06:11:48;;;;;;;43.78;40.95;;;10.50;99.90;;;;;;5246273;28;20085;-73
2023/04/09 06:14:19;;;;;;;43.63;40.72;;;10.40;99.90;;;;;;5249121;28;20081;-72
2023/04/09 06:16:50;;;;;;;42.15;39.45;;;10.30;99.90;;;;;;5249031;28;20028;-72
2023/04/09 06:19:22;;;;;;;39.63;36.97;;;10.30;99.90;;;;;;5249068;28;20021;-74
2023/04/09 06:21:53;;;;;;;41.17;38.58;;;10.40;99.90;;;;;;5248843;28;20029;-73
2023/04/09 06:24:24;;;;;;;41.13;38.47;;;10.30;99.90;;;;;;5248744;28;20043;-73
2023/04/09 06:26:55;;;;;;;41.67;38.92;;;10.70;99.90;;;;;;5249234;28;20044;-65
2023/04/09 06:29:26;;;;;;;42.55;39.67;;;10.70;99.90;;;;;;5248913;28;20033;-73
2023/04/09 06:31:57;;;;;;;39.13;36.72;;;10.90;99.90;;;;;;5249289;28;20021;-67
2023/04/09 06:34:27;;;;;;;41.42;38.72;;;10.80;99.90;;;;;;5249137;28;20765;-73
2023/04/09 06:36:58;;;;;;;43.83;41.10;;;11.00;99.90;;;;;;5249193;28;20016;-72
2023/04/09 06:39:29;;;;;;;44.15;41.25;;;11.00;99.90;;;;;;5249296;28;20044;-67
2023/04/09 06:42:00;;;;;;;46.13;43.38;;;11.10;99.90;;;;;;5249104;28;20028;-73
2023/04/09 06:44:32;;;;;;;43.33;40.67;;;10.90;99.90;;;;;;5249045;28;20032;-71
2023/04/09 06:47:03;;;;;;;46.47;43.45;;;11.10;99.90;;;;;;5248554;28;20036;-72
2023/04/09 06:49:34;;;;;;;48.60;45.58;;;11.70;99.90;;;;;;5249004;28;20138;-72
2023/04/09 06:52:06;;;;;;;49.60;46.60;;;11.40;99.90;;;;;;5248874;28;20029;-72
2023/04/09 06:54:37;;;;;;;53.80;50.60;;;11.50;99.90;;;;;;5248590;28;20032;-66
2023/04/09 06:57:08;;;;;;;54.15;50.97;;;11.40;99.90;;;;;;5248816;28;20062;-72
2023/04/09 06:59:39;;;;;;;48.45;45.45;;;11.50;99.90;;;;;;5248535;28;20032;-72
2023/04/09 07:02:10;;;;;;;51.78;48.65;;;11.70;99.90;;;;;;5248495;28;20036;-72
2023/04/09 07:04:41;;;;;;;52.42;49.38;;;11.50;99.90;;;;;;5248363;28;20421;-64
2023/04/09 07:07:11;;;;;;;53.78;50.58;;;11.60;99.90;;;;;;5248620;28;20017;-72
2023/04/09 07:09:43;;;;;;;54.95;51.67;;;11.90;99.90;;;;;;5248417;28;20039;-72
2023/04/09 07:12:15;;;;;;;64.10;60.28;;;11.90;99.90;;;;;;5232660;28;20036;-73
2023/04/09 07:14:46;;;;;;;77.15;72.18;;;11.90;99.90;;;;;;5245528;28;20086;-72
2023/04/09 07:17:16;;;;;;;62.47;58.70;;;11.70;99.90;;;;;;5231349;28;20033;-72
2023/04/09 07:19:47;;;;;;;62.10;58.20;;;11.80;99.90;;;;;;5226643;28;20025;-71
2023/04/09 07:22:20;;;;;;;60.20;56.58;;;11.50;99.90;;;;;;5227316;28;20021;-72
2023/04/09 07:24:54;;;;;;;56.78;53.47;;;11.50;99.90;;;;;;5227245;28;20029;-73
2023/04/09 07:27:26;;;;;;;60.85;57.30;;;11.90;99.90;;;;;;5227323;28;20107;-72
2023/04/09 07:29:58;;;;;;;60.13;56.53;;;11.70;99.90;;;;;;5227400;28;20475;-70
2023/04/09 07:32:29;;;;;;;60.05;56.42;;;11.70;99.90;;;;;;5225891;28;20040;-72
2023/04/09 07:35:01;;;;;;;56.63;53.17;;;11.60;99.90;;;;;;5227163;28;20061;-72
2023/04/09 07:37:32;;;;;;;52.10;49.03;;;11.30;99.90;;;;;;5229436;28;20116;-68
2023/04/09 07:40:03;;;;;;;58.65;54.55;;;11.50;99.90;;;;;;5247352;28;20178;-73
2023/04/09 07:42:37;;;;;;;61.47;58.03;;;11.90;99.90;;;;;;5247743;28;20023;-74
2023/04/09 07:45:08;;;;;;;58.33;54.53;;;11.80;99.90;;;;;;5247923;28;20816;-74
2023/04/09 07:47:40;;;;;;;61.78;58.00;;;11.70;99.90;;;;;;5242164;28;20092;-72
2023/04/09 07:50:11;;;;;;;59.10;55.47;;;12.30;99.90;;;;;;5229393;28;20504;-66
2023/04/09 07:52:42;;;;;;;64.55;60.65;;;12.40;99.90;;;;;;5238850;28;20028;-66
2023/04/09 07:55:12;;;;;;;63.97;60.30;;;11.90;99.90;;;;;;5239334;28;20025;-70
2023/04/09 07:57:44;;;;;;;91.53;86.03;;;12.30;99.90;;;;;;5244005;28;20488;-71
2023/04/09 08:00:15;;;;;;;59.55;55.95;;;12.40;99.90;;;;;;5239337;28;20464;-67
2023/04/09 08:02:46;;;;;;;65.13;61.35;;;12.30;99.90;;;;;;5226700;28;20112;-69
2023/04/09 08:05:17;;;;;;;66.18;62.35;;;12.20;99.90;;;;;;5226514;28;20128;-64
2023/04/09 08:07:49;;;;;;;65.82;61.92;;;12.10;99.90;;;;;;5228118;28;20021;-72
2023/04/09 08:10:20;;;;;;;59.00;55.38;;;12.10;99.90;;;;;;5234255;28;20065;-71
2023/04/09 08:12:51;;;;;;;69.57;65.55;;;12.60;99.90;;;;;;5246531;28;20495;-68
2023/04/09 08:15:22;;;;;;;62.88;59.22;;;12.60;99.90;;;;;;5247262;28;20032;-72
2023/04/09 08:17:53;;;;;;;62.40;58.58;;;12.90;99.90;;;;;;5246676;28;20786;-68
2023/04/09 08:20:24;;;;;;;59.80;56.38;;;13.00;99.90;;;;;;5233600;28;20434;-71
2023/04/09 08:22:55;;;;;;;57.28;53.97;;;13.20;99.90;;;;;;5232668;28;20159;-72
2023/04/09 08:25:26;;;;;;;63.60;59.75;;;12.70;99.90;;;;;;5226267;28;20125;-72
2023/04/09 08:27:57;;;;;;;67.78;63.72;;;12.80;99.90;;;;;;5226284;28;20025;-74
2023/04/09 08:30:27;;;;;;;67.82;63.80;;;12.60;99.90;;;;;;5226294;28;20381;-64
2023/04/09 08:32:59;;;;;;;65.47;61.67;;;12.40;99.90;;;;;;5225950;28;20028;-71
2023/04/09 08:35:30;;;;;;;65.55;61.83;;;12.50;99.90;;;;;;5226272;28;20041;-71
2023/04/09 08:38:02;;;;;;;63.63;59.72;;;13.20;99.90;;;;;;5227283;28;20020;-71
2023/04/09 08:40:36;;;;;;;66.22;62.42;;;12.80;99.90;;;;;;5230538;28;20043;-72
2023/04/09 08:43:09;;;;;;;58.75;55.33;;;13.10;99.90;;;;;;5226315;28;20075;-66
2023/04/09 08:45:41;;;;;;;60.75;57.35;;;12.40;99.90;;;;;;5237759;28;20066;-65
2023/04/09 08:48:13;;;;;;;62.83;59.17;;;13.20;99.90;;;;;;5246801;28;20024;-65
2023/04/09 08:50:45;;;;;;;65.97;62.15;;;12.70;99.90;;;;;;5245031;28;20021;-73
2023/04/09 08:53:18;;;;;;;65.70;61.80;;;12.50;99.90;;;;;;5231800;28;20025;-68
2023/04/09 08:55:49;;;;;;;64.07;60.38;;;12.50;99.90;;;;;;5236297;28;20360;-69
2023/04/09 08:58:19;;;;;;;72.35;68.25;;;12.90;99.90;;;;;;5226121;28;20098;-70
2023/04/09 09:00:50;;;;;;;59.58;56.13;;;13.10;99.90;;;;;;5231449;28;20020;-72
2023/04/09 09:03:21;;;;;;;59.42;55.83;;;13.70;99.90;;;;;;5228581;28;20048;-72
2023/04/09 09:05:52;;;;;;;60.38;56.88;;;13.20;99.90;;;;;;5226191;28;20033;-74
2023/04/09 09:08:24;;;;;;;56.20;53.03;;;13.20;99.90;;;;;;5226306;28;20785;-71
2023/04/09 09:10:55;;;;;;;57.55;54.25;;;13.50;99.90;;;;;;5238804;28;20052;-71
2023/04/09 09:13:27;;;;;;;60.15;56.67;;;12.60;99.90;;;;;;5234389;28;20511;-72
2023/04/09 09:16:19;;;;;;;58.50;55.03;;;12.60;99.90;;;;;;5229972;28;20035;-70
2023/04/09 09:18:51;;;;;;;58.33;55.13;;;13.20;99.90;;;;;;5230064;28;20036;-73
2023/04/09 09:21:22;;;;;;;56.40;52.53;;;13.00;99.90;;;;;;5241898;28;20033;-72
2023/04/09 09:23:53;;;;;;;58.42;55.00;;;13.10;99.90;;;;;;5229723;28;20021;-72
2023/04/09 09:26:29;;;;;;;57.95;54.65;;;13.30;99.90;;;;;;5229452;28;20078;-66
2023/04/09 09:29:04;;;;;;;52.90;49.83;;;13.70;99.90;;;;;;5229783;28;20017;-64
2023/04/09 09:31:49;;;;;;;51.05;48.03;;;13.80;99.90;;;;;;5231896;28;20167;-72
2023/04/09 09:34:21;;;;;;;56.50;53.10;;;13.40;99.90;;;;;;5244390;28;20047;-71
2023/04/09 09:36:52;;;;;;;57.10;53.85;;;12.70;99.90;;;;;;5229470;28;20025;-66
2023/04/09 09:39:41;;;;;;;59.78;56.28;;;12.70;99.90;;;;;;5244266;28;20078;-67
2023/04/09 09:42:12;;;;;;;61.75;58.25;;;12.60;99.90;;;;;;5240071;28;20028;-70
2023/04/09 09:44:43;;;;;;;59.95;56.53;;;12.80;99.90;;;;;;5231836;28;20555;-73
2023/04/09 09:47:16;;;;;;;60.65;56.95;;;12.70;99.90;;;;;;5244247;28;20366;-71
2023/04/09 09:49:49;;;;;;;543.97;363.60;;;13.50;99.90;;;;;;5238894;28;20388;-72
2023/04/09 09:52:26;;;;;;;133.32;110.45;;;13.20;99.90;;;;;;5249927;28;20484;-72
2023/04/09 09:54:59;;;;;;;73.00;67.43;;;12.70;99.90;;;;;;5239558;28;20108;-72
2023/04/09 09:57:31;;;;;;;91.10;82.78;;;12.50;99.90;;;;;;5240770;28;20027;-65
2023/04/09 10:00:03;;;;;;;57.22;53.85;;;13.20;99.90;;;;;;5249370;28;20038;-75
2023/04/09 10:02:43;;;;;;;131.25;120.20;;;13.40;99.90;;;;;;5245576;28;20033;-72
2023/04/09 10:05:15;;;;;;;932.70;648.45;;;13.30;99.90;;;;;;5236232;28;20033;-67
2023/04/09 10:07:48;;;;;;;454.30;294.98;;;13.60;99.90;;;;;;5246617;28;20032;-66
2023/04/09 10:10:19;;;;;;;917.55;597.55;;;13.70;99.90;;;;;;5244224;28;20388;-69
2023/04/09 10:12:51;;;;;;;468.38;269.40;;;13.40;99.90;;;;;;5248727;28;20027;-72
2023/04/09 10:15:22;;;;;;;63.00;58.13;;;13.30;99.90;;;;;;5229062;28;20041;-68
2023/04/09 10:17:53;;;;;;;84.22;76.00;;;13.30;99.90;;;;;;5242084;28;20060;-71
2023/04/09 10:20:35;;;;;;;117.45;106.13;;;13.70;99.90;;;;;;5228503;28;20108;-73
2023/04/09 10:23:15;;;;;;;54.05;50.53;;;14.20;99.90;;;;;;5229812;28;20488;-72
2023/04/09 10:25:46;;;;;;;60.20;56.20;;;14.20;99.90;;;;;;5231427;28;20037;-71
2023/04/09 10:28:17;;;;;;;57.90;54.40;;;13.90;99.90;;;;;;5242027;28;20498;-71
2023/04/09 10:30:48;;;;;;;88.43;79.75;;;14.10;99.90;;;;;;5228537;28;20028;-72
2023/04/09 10:33:27;;;;;;;69.32;64.72;;;14.20;99.90;;;;;;5227945;28;20503;-72
2023/04/09 10:36:09;;;;;;;135.70;126.28;;;13.80;99.90;;;;;;5228631;28;20087;-72
2023/04/09 10:38:45;;;;;;;85.43;76.28;;;14.00;99.90;;;;;;5228390;28;20032;-68
2023/04/09 10:41:24;;;;;;;201.32;184.70;;;13.60;99.90;;;;;;5242504;28;20086;-72
2023/04/09 10:43:56;;;;;;;63.05;58.08;;;13.40;99.90;;;;;;5234306;28;20458;-72
2023/04/09 10:46:34;;;;;;;68.57;63.67;;;13.30;99.90;;;;;;5226925;28;20064;-72
2023/04/09 10:49:19;;;;;;;70.35;64.55;;;13.70;99.90;;;;;;5228406;28;20013;-73
2023/04/09 10:52:14;;;;;;;62.65;58.25;;;14.10;99.90;;;;;;5237876;28;20033;-72
2023/04/09 10:54:45;;;;;;;66.05;60.88;;;14.00;99.90;;;;;;5230609;28;20128;-72
2023/04/09 10:57:18;;;;;;;72.97;66.47;;;14.70;99.90;;;;;;5227891;28;20020;-66
2023/04/09 10:59:51;;;;;;;53.90;49.67;;;14.60;99.90;;;;;;5720727;22;20428;-72
2023/04/09 11:02:55;;;;;;;84.95;74.35;;;14.70;99.90;;;;;;5239266;28;20025;-72
2023/04/09 11:05:33;;;;;;;52.00;48.55;;;14.10;99.90;;;;;;5248222;28;20025;-71
2023/04/09 11:08:12;;;;;;;52.60;48.63;;;14.20;99.90;;;;;;5230095;28;20426;-72
2023/04/09 11:10:45;;;;;;;59.25;54.38;;;14.50;99.90;;;;;;5234230;28;20032;-70
2023/04/09 11:13:18;;;;;;;73.72;68.97;;;14.50;99.90;;;;;;5239694;28;20020;-64
2023/04/09 11:15:49;;;;;;;59.30;53.00;;;14.60;99.90;;;;;;5227652;28;20450;-71
2023/04/09 11:18:24;;;;;;;88.35;68.80;;;15.00;99.90;;;;;;5227828;28;20025;-65
2023/04/09 11:21:02;;;;;;;49.03;45.53;;;14.90;99.90;;;;;;5228793;28;20035;-66
2023/04/09 11:23:33;;;;;;;46.33;42.78;;;14.60;99.90;;;;;;5248528;28;20043;-66
2023/04/09 11:26:04;;;;;;;87.28;81.15;;;14.00;99.90;;;;;;5248066;28;20036;-65
2023/04/09 11:28:35;;;;;;;59.42;55.95;;;14.50;99.90;;;;;;5248040;28;20025;-68
2023/04/09 11:31:06;;;;;;;57.88;54.20;;;14.40;99.90;;;;;;5248111;28;20063;-72
2023/04/09 11:33:37;;;;;;;77.47;72.82;;;14.20;99.90;;;;;;5247850;28;20031;-71
2023/04/09 11:36:09;;;;;;;67.20;60.53;;;14.50;99.90;;;;;;5246651;28;20028;-66
2023/04/09 11:38:40;;;;;;;47.88;44.63;;;14.70;99.90;;;;;;5220394;28;20029;-71
2023/04/09 11:41:12;;;;;;;101.63;95.50;;;14.60;99.90;;;;;;5217362;28;20070;-71
2023/04/09 11:43:43;;;;;;;44.97;42.17;;;14.90;99.90;;;;;;5214618;28;20032;-69
2023/04/09 11:46:14;;;;;;;54.38;50.72;;;14.60;99.90;;;;;;5216491;28;20037;-67
2023/04/09 11:48:45;;;;;;;73.05;68.38;;;14.70;99.90;;;;;;5218000;28;20029;-70
2023/04/09 11:51:16;;;;;;;51.25;48.25;;;14.30;99.90;;;;;;5206398;28;20029;-66
2023/04/09 11:53:48;;;;;;;75.63;71.07;;;14.50;99.90;;;;;;5206428;28;20395;-71
2023/04/09 11:56:19;;;;;;;62.03;57.65;;;13.80;99.90;;;;;;5205590;28;20116;-74
2023/04/09 11:58:50;;;;;;;52.67;49.15;;;14.00;99.90;;;;;;5211459;28;20028;-72
2023/04/09 12:01:21;;;;;;;66.88;63.03;;;14.50;99.90;;;;;;5220028;28;20416;-64
2023/04/09 12:03:53;;;;;;;79.25;74.60;;;14.70;99.90;;;;;;5212749;28;20022;-70
2023/04/09 12:06:25;;;;;;;70.43;65.78;;;14.50;99.90;;;;;;5210117;28;20041;-69
2023/04/09 12:08:58;;;;;;;42.88;40.17;;;15.00;99.90;;;;;;5224727;28;20028;-72
2023/04/09 12:11:31;;;;;;;44.08;41.53;;;14.70;99.90;;;;;;5226557;28;20492;-71
2023/04/09 12:14:06;;;;;;;46.22;43.42;;;14.30;99.90;;;;;;5226478;28;20075;-64
2023/04/09 12:16:36;;;;;;;45.22;42.33;;;14.40;99.90;;;;;;5212599;28;20381;-63
2023/04/09 12:19:09;;;;;;;48.58;45.63;;;14.60;99.90;;;;;;5078251;28;20041;-67
2023/04/09 12:21:51;;;;;;;38.35;36.00;;;15.90;99.90;;;;;;4978331;28;20048;-67
2023/04/09 12:24:24;;;;;;;38.47;36.08;;;16.90;99.90;;;;;;5131424;28;20038;-69
2023/04/09 12:26:56;;;;;;;39.30;37.00;;;17.20;99.90;;;;;;5145275;28;20336;-70
2023/04/09 12:29:28;;;;;;;37.05;34.65;;;17.20;99.90;;;;;;5140681;28;20129;-69
2023/04/09 12:31:59;;;;;;;31.17;29.08;;;17.40;99.90;;;;;;5129047;28;20070;-70
2023/04/09 12:34:30;;;;;;;28.38;26.45;;;17.40;99.90;;;;;;5124972;28;20075;-70
2023/04/09 12:37:01;;;;;;;31.48;29.38;;;17.30;99.90;;;;;;5124929;28;20027;-69
2023/04/09 12:39:32;;;;;;;36.00;33.70;;;17.30;99.90;;;;;;5124968;28;20028;-67
2023/04/09 12:42:03;;;;;;;40.88;37.38;;;17.40;99.90;;;;;;5124842;28;20031;-70
2023/04/09 12:44:34;;;;;;;41.35;37.20;;;17.40;99.90;;;;;;5125661;28;20383;-70
2023/04/09 12:47:04;;;;;;;40.75;37.80;;;17.50;99.90;;;;;;5129083;28;20062;-70
2023/04/09 12:49:36;;;;;;;38.20;35.65;;;17.40;99.90;;;;;;5128936;28;20467;-71
2023/04/09 12:52:06;;;;;;;37.15;34.42;;;17.30;99.90;;;;;;5128772;28;20031;-67
2023/04/09 12:54:39;;;;;;;36.70;34.20;;;17.30;99.90;;;;;;5128814;28;20475;-67
2023/04/09 12:57:09;;;;;;;33.03;30.70;;;17.30;99.90;;;;;;5128631;28;20110;-68